Time;durP1;ratioP1;P1;durP2;ratioP2;P2;SDS_P1;SDS_P2;PMS_P1;PMS_P2;Temp;Humidity;BMP_temperature;BMP_pressure;BME280_temperature;BME280_humidity;BME280_pressure;Samples;Min_cycle;Max_cycle;Signal;HPM_P1;HPM_P2
2022/12/18 00:00:42;;;;;;;33.33;21.97;;;-5.80;89.70;;;;;;5015244;28;20208;-89
2022/12/18 00:03:07;;;;;;;35.07;20.40;;;-5.70;89.80;;;;;;5014609;28;20196;-89
2022/12/18 00:05:33;;;;;;;33.17;20.47;;;-5.60;89.90;;;;;;5014170;28;20646;-89
2022/12/18 00:07:58;;;;;;;35.97;21.63;;;-5.50;89.90;;;;;;5015192;28;20253;-89
2022/12/18 00:10:24;;;;;;;31.07;19.93;;;-5.50;89.80;;;;;;5013957;28;20223;-89
2022/12/18 00:12:49;;;;;;;35.00;20.00;;;-5.60;89.70;;;;;;5017132;28;20208;-89
2022/12/18 00:15:15;;;;;;;29.93;19.37;;;-5.50;89.80;;;;;;5014002;28;20658;-89
2022/12/18 00:17:41;;;;;;;36.37;20.53;;;-5.50;89.60;;;;;;5013771;28;20192;-88
2022/12/18 00:20:07;;;;;;;30.23;19.30;;;-5.50;89.70;;;;;;5013650;28;20221;-89
2022/12/18 00:22:33;;;;;;;36.73;19.53;;;-5.60;89.50;;;;;;5015555;28;20173;-89
2022/12/18 00:24:58;;;;;;;29.37;20.13;;;-5.70;89.50;;;;;;5014867;28;20175;-89
2022/12/18 00:27:24;;;;;;;33.63;19.70;;;-5.70;89.40;;;;;;5014056;28;20173;-89
2022/12/18 00:29:50;;;;;;;32.43;18.70;;;-5.70;89.40;;;;;;5014167;28;20694;-89
2022/12/18 00:32:15;;;;;;;33.67;19.73;;;-5.70;89.40;;;;;;5013679;28;20591;-89
2022/12/18 00:34:41;;;;;;;26.07;19.13;;;-5.60;89.50;;;;;;5013540;28;20555;-89
2022/12/18 00:37:06;;;;;;;32.27;19.37;;;-5.60;89.40;;;;;;5013754;28;20200;-89
2022/12/18 00:39:32;;;;;;;30.37;20.77;;;-5.60;89.30;;;;;;5014034;28;20205;-89
2022/12/18 00:44:42;;;;;;;33.90;19.87;;;-5.60;89.40;;;;;;5015016;28;20580;-89
2022/12/18 00:47:07;;;;;;;31.43;19.97;;;-5.60;89.40;;;;;;5013634;28;20252;-89
2022/12/18 00:49:33;;;;;;;28.03;19.47;;;-5.70;89.30;;;;;;5013953;28;20553;-89
2022/12/18 00:51:58;;;;;;;27.17;19.13;;;-5.70;89.30;;;;;;5013196;28;20185;-89
2022/12/18 00:54:24;;;;;;;38.77;19.90;;;-5.80;89.20;;;;;;5013118;28;20240;-89
2022/12/18 00:56:49;;;;;;;33.27;20.13;;;-5.80;89.30;;;;;;5013225;28;20232;-89
2022/12/18 00:59:16;;;;;;;31.57;18.97;;;-5.80;89.20;;;;;;5014292;28;20189;-89
2022/12/18 01:01:42;;;;;;;27.20;17.23;;;-6.00;89.10;;;;;;5012893;28;20208;-89
2022/12/18 01:04:07;;;;;;;31.50;19.50;;;-6.00;89.00;;;;;;5012957;28;20174;-89
2022/12/18 01:06:33;;;;;;;30.77;18.87;;;-6.00;89.00;;;;;;5012954;28;20177;-89
2022/12/18 01:08:59;;;;;;;29.37;17.10;;;-6.00;89.00;;;;;;5013570;28;20256;-89
2022/12/18 01:11:24;;;;;;;35.43;18.77;;;-5.90;89.10;;;;;;5013925;28;20232;-89
2022/12/18 01:13:52;;;;;;;28.73;17.93;;;-5.90;89.10;;;;;;5012796;28;20204;-89
2022/12/18 01:16:18;;;;;;;29.20;18.77;;;-5.90;89.10;;;;;;5013107;28;20181;-89
2022/12/18 01:18:44;;;;;;;27.20;17.97;;;-5.90;89.10;;;;;;5012731;28;20223;-89
2022/12/18 01:21:12;;;;;;;26.80;18.63;;;-5.90;89.10;;;;;;5012764;28;20695;-89
2022/12/18 01:23:37;;;;;;;32.80;18.70;;;-5.90;89.10;;;;;;5013323;28;20200;-89
2022/12/18 01:26:13;;;;;;;28.40;18.40;;;-5.90;89.10;;;;;;5012625;28;20671;-89
2022/12/18 01:28:39;;;;;;;26.33;17.43;;;-5.90;89.00;;;;;;5013387;28;20172;-89
2022/12/18 01:31:21;;;;;;;24.53;17.07;;;-5.80;89.20;;;;;;5012547;28;20208;-89
2022/12/18 01:33:51;;;;;;;29.30;17.07;;;-5.80;89.20;;;;;;5012496;28;20165;-89
2022/12/18 01:36:23;;;;;;;30.30;17.17;;;-5.80;89.20;;;;;;5012759;28;20182;-89
2022/12/18 01:38:49;;;;;;;28.63;18.73;;;-5.70;89.20;;;;;;5012502;28;20264;-88
2022/12/18 01:41:20;;;;;;;26.73;17.27;;;-5.70;89.20;;;;;;5012556;28;20271;-89
2022/12/18 01:43:56;;;;;;;26.90;16.70;;;-5.70;89.10;;;;;;5012514;28;20169;-89
2022/12/18 01:46:26;;;;;;;28.67;17.03;;;-5.70;89.10;;;;;;5013265;28;20187;-89
2022/12/18 01:48:59;;;;;;;25.27;16.30;;;-5.80;89.00;;;;;;5012298;28;20621;-88
2022/12/18 01:51:26;;;;;;;22.57;14.73;;;-5.80;89.00;;;;;;5012420;28;20201;-89
2022/12/18 01:53:52;;;;;;;29.57;18.33;;;-5.80;89.00;;;;;;5013506;28;20260;-89
2022/12/18 01:56:19;;;;;;;24.43;15.13;;;-5.70;89.20;;;;;;5012212;28;20212;-89
2022/12/18 01:58:45;;;;;;;17.37;12.30;;;-5.70;89.20;;;;;;5012647;28;20177;-88
2022/12/18 02:01:11;;;;;;;23.47;15.30;;;-5.80;89.00;;;;;;5012169;28;20224;-89
2022/12/18 02:03:36;;;;;;;19.40;13.97;;;-5.80;89.10;;;;;;5013675;28;20172;-88
2022/12/18 02:06:15;;;;;;;27.97;15.10;;;-5.90;89.20;;;;;;5012328;28;20191;-89
2022/12/18 02:09:06;;;;;;;26.10;15.77;;;-5.90;89.20;;;;;;5013726;28;20560;-89
2022/12/18 02:11:38;;;;;;;25.07;16.13;;;-5.80;89.30;;;;;;5012142;28;20196;-89
2022/12/18 02:14:31;;;;;;;31.00;15.63;;;-5.80;89.30;;;;;;5012343;28;20170;-89
2022/12/18 02:17:22;;;;;;;24.83;15.70;;;-5.80;89.20;;;;;;5012551;28;20634;-89
2022/12/18 02:20:06;;;;;;;30.57;16.27;;;-5.90;89.00;;;;;;5015305;28;20196;-89
2022/12/18 02:22:40;;;;;;;27.20;16.53;;;-6.00;89.00;;;;;;5016569;28;20581;-89
2022/12/18 02:25:24;;;;;;;24.60;16.70;;;-6.00;89.00;;;;;;5016081;28;20168;-88
2022/12/18 02:27:51;;;;;;;25.57;15.73;;;-6.00;89.00;;;;;;5015925;28;20164;-88
2022/12/18 02:30:17;;;;;;;28.23;16.40;;;-6.00;89.00;;;;;;5015993;28;20219;-88
2022/12/18 02:32:50;;;;;;;24.43;16.07;;;-6.00;89.10;;;;;;5017087;28;20177;-88
2022/12/18 02:35:25;;;;;;;26.57;15.53;;;-6.00;89.00;;;;;;5015874;28;20172;-89
2022/12/18 02:37:54;;;;;;;24.27;16.33;;;-6.00;89.00;;;;;;5015864;28;20282;-88
2022/12/18 02:40:23;;;;;;;26.90;16.37;;;-6.10;88.90;;;;;;5015788;28;20197;-88
2022/12/18 02:42:49;;;;;;;22.23;16.57;;;-6.10;88.90;;;;;;5015574;28;20173;-89
2022/12/18 02:45:14;;;;;;;28.73;16.67;;;-6.00;89.00;;;;;;5017154;28;20182;-89
2022/12/18 02:47:45;;;;;;;27.47;17.53;;;-5.90;89.00;;;;;;5015598;28;20182;-89
2022/12/18 02:50:10;;;;;;;27.30;15.60;;;-5.90;89.00;;;;;;5015586;28;20204;-89
2022/12/18 02:52:44;;;;;;;23.80;16.87;;;-5.80;89.00;;;;;;5015395;28;20177;-89
2022/12/18 02:55:36;;;;;;;23.00;16.57;;;-5.80;88.90;;;;;;5015558;28;20252;-89
2022/12/18 02:58:40;;;;;;;29.43;16.57;;;-5.90;88.90;;;;;;5015295;28;20173;-89
2022/12/18 03:01:33;;;;;;;25.27;16.50;;;-5.90;88.80;;;;;;5013245;28;20771;-89
2022/12/18 03:04:03;;;;;;;24.73;15.70;;;-5.90;88.80;;;;;;5015344;28;20627;-89
2022/12/18 03:06:35;;;;;;;23.27;14.90;;;-6.00;88.60;;;;;;5015349;28;20619;-89
2022/12/18 03:09:06;;;;;;;26.83;16.03;;;-6.00;88.60;;;;;;5015220;28;20174;-89
2022/12/18 03:14:22;;;;;;;24.03;15.47;;;-6.20;88.40;;;;;;5016628;28;20690;-89
2022/12/18 03:16:52;;;;;;;20.80;15.70;;;-6.20;88.40;;;;;;5016477;28;20204;-89
2022/12/18 03:19:22;;;;;;;21.60;15.40;;;-6.10;88.50;;;;;;5015180;28;20177;-89
2022/12/18 03:21:51;;;;;;;22.00;14.03;;;-6.10;88.40;;;;;;5014829;28;20254;-89
2022/12/18 03:24:18;;;;;;;21.37;15.27;;;-6.00;88.50;;;;;;5014808;28;20215;-89
2022/12/18 03:26:47;;;;;;;21.17;15.50;;;-6.10;88.30;;;;;;5016351;28;20612;-89
2022/12/18 03:29:21;;;;;;;23.73;14.27;;;-6.10;88.20;;;;;;5015001;28;20648;-89
2022/12/18 03:31:53;;;;;;;28.47;14.87;;;-6.20;88.10;;;;;;5014301;28;20200;-89
2022/12/18 03:34:35;;;;;;;25.80;16.03;;;-6.20;88.10;;;;;;5014670;28;20185;-89
2022/12/18 03:37:05;;;;;;;21.80;15.30;;;-6.20;88.20;;;;;;5014638;28;20564;-88
2022/12/18 03:39:31;;;;;;;21.87;13.23;;;-6.20;88.20;;;;;;5014503;28;20221;-89
2022/12/18 03:42:08;;;;;;;24.53;14.97;;;-6.20;88.20;;;;;;5014448;28;20745;-89
2022/12/18 03:45:04;;;;;;;20.27;14.20;;;-6.20;88.20;;;;;;5014479;28;20180;-89
2022/12/18 03:47:44;;;;;;;25.03;14.77;;;-6.20;88.20;;;;;;5014589;28;20174;-89
2022/12/18 03:50:31;;;;;;;22.60;15.23;;;-6.30;88.20;;;;;;5014419;28;20193;-89
2022/12/18 03:52:59;;;;;;;22.53;15.30;;;-6.30;88.20;;;;;;5015603;28;20166;-89
2022/12/18 03:55:26;;;;;;;21.40;14.67;;;-6.30;88.20;;;;;;5014221;28;20173;-89
2022/12/18 03:57:53;;;;;;;22.93;14.87;;;-6.30;88.20;;;;;;5015493;28;20169;-89
2022/12/18 04:00:20;;;;;;;22.23;15.50;;;-6.30;88.10;;;;;;5014436;28;20243;-89
2022/12/18 04:02:51;;;;;;;23.93;16.37;;;-6.30;88.20;;;;;;5014187;28;20176;-89
2022/12/18 04:05:17;;;;;;;25.67;16.23;;;-6.30;88.10;;;;;;5014092;28;20196;-89
2022/12/18 04:07:44;;;;;;;26.17;14.43;;;-6.40;88.10;;;;;;5014126;28;20219;-89
2022/12/18 04:10:14;;;;;;;24.67;15.10;;;-6.40;88.10;;;;;;5014361;28;20216;-89
2022/12/18 04:12:40;;;;;;;22.67;15.20;;;-6.30;88.10;;;;;;5014106;28;20196;-89
2022/12/18 04:15:06;;;;;;;26.40;15.90;;;-6.30;88.00;;;;;;5013909;28;20169;-89
2022/12/18 04:17:32;;;;;;;20.60;13.83;;;-6.20;88.20;;;;;;5013859;28;20180;-89
2022/12/18 04:19:57;;;;;;;27.27;16.43;;;-6.30;88.00;;;;;;5013771;28;20193;-89
2022/12/18 04:22:23;;;;;;;23.93;15.10;;;-6.40;87.90;;;;;;5013767;28;20744;-89
2022/12/18 04:24:48;;;;;;;22.30;14.93;;;-6.50;87.80;;;;;;5014099;28;20666;-89
2022/12/18 04:27:14;;;;;;;20.40;14.47;;;-6.50;87.90;;;;;;5014077;28;20200;-89
2022/12/18 04:29:40;;;;;;;23.67;15.07;;;-6.40;87.90;;;;;;5013503;28;20227;-89
2022/12/18 04:32:06;;;;;;;29.93;15.80;;;-6.30;87.90;;;;;;5014701;28;20253;-88
2022/12/18 04:34:32;;;;;;;29.40;16.77;;;-6.30;88.00;;;;;;5015083;28;20185;-89
2022/12/18 04:36:57;;;;;;;20.97;13.57;;;-6.30;87.90;;;;;;5013611;28;20177;-89
2022/12/18 04:39:24;;;;;;;20.70;14.10;;;-6.30;87.80;;;;;;5013567;28;20197;-89
2022/12/18 04:41:49;;;;;;;20.53;15.23;;;-6.40;87.80;;;;;;5013932;28;20232;-89
2022/12/18 04:44:15;;;;;;;24.57;17.37;;;-6.50;87.70;;;;;;5013116;28;20235;-89
2022/12/18 04:46:40;;;;;;;21.03;14.40;;;-6.50;87.70;;;;;;5013275;28;20239;-88
2022/12/18 04:49:06;;;;;;;23.60;16.23;;;-6.50;87.70;;;;;;5013230;28;20177;-88
2022/12/18 04:51:32;;;;;;;21.83;15.30;;;-6.40;87.80;;;;;;5013222;28;20701;-88
2022/12/18 04:53:57;;;;;;;21.87;15.53;;;-6.40;87.80;;;;;;5014747;28;20173;-89
2022/12/18 04:56:23;;;;;;;20.80;14.97;;;-6.30;87.70;;;;;;5013225;28;20228;-88
2022/12/18 04:58:48;;;;;;;21.53;15.37;;;-6.40;87.60;;;;;;5013134;28;20173;-89
2022/12/18 05:01:16;;;;;;;20.90;14.53;;;-6.40;87.50;;;;;;5013303;28;20242;-89
2022/12/18 05:03:42;;;;;;;25.53;15.57;;;-6.40;87.50;;;;;;5013128;28;20211;-89
2022/12/18 05:06:08;;;;;;;23.13;14.93;;;-6.40;87.50;;;;;;5013124;28;20205;-89
2022/12/18 05:08:34;;;;;;;19.20;14.10;;;-6.40;87.50;;;;;;5013082;28;20674;-89
2022/12/18 05:11:08;;;;;;;21.47;15.40;;;-6.40;87.40;;;;;;5014431;28;20229;-89
2022/12/18 05:13:35;;;;;;;22.77;15.00;;;-6.50;87.40;;;;;;5013599;28;20165;-88
2022/12/18 05:16:01;;;;;;;23.83;15.43;;;-6.60;87.30;;;;;;5013119;28;20187;-88
2022/12/18 05:18:27;;;;;;;19.93;14.77;;;-6.60;87.40;;;;;;5012872;28;20268;-89
2022/12/18 05:20:53;;;;;;;24.20;14.93;;;-6.70;87.40;;;;;;5012814;28;20243;-89
2022/12/18 05:23:20;;;;;;;26.70;17.63;;;-6.60;87.40;;;;;;5012759;28;20182;-88
2022/12/18 05:25:56;;;;;;;24.73;16.73;;;-6.60;87.50;;;;;;5012713;28;20179;-89
2022/12/18 05:28:24;;;;;;;20.60;15.50;;;-6.50;87.50;;;;;;5012953;28;20225;-89
2022/12/18 05:30:54;;;;;;;21.20;15.70;;;-6.60;87.50;;;;;;5012367;28;20585;-89
2022/12/18 05:33:21;;;;;;;22.50;15.60;;;-6.60;87.40;;;;;;5014368;28;20635;-89
2022/12/18 05:35:58;;;;;;;22.60;15.07;;;-6.70;87.40;;;;;;5012522;28;20209;-89
2022/12/18 05:38:25;;;;;;;24.33;14.93;;;-6.70;87.40;;;;;;5012211;28;20185;-89
2022/12/18 05:40:52;;;;;;;21.20;14.47;;;-6.80;87.40;;;;;;5013810;28;20205;-88
2022/12/18 05:43:19;;;;;;;17.67;13.57;;;-6.80;87.50;;;;;;5012429;28;20778;-89
2022/12/18 05:45:44;;;;;;;20.83;14.90;;;-6.80;87.40;;;;;;5012443;28;20204;-89
2022/12/18 05:48:13;;;;;;;20.47;14.27;;;-6.90;87.40;;;;;;5012324;28;20651;-89
2022/12/18 05:50:41;;;;;;;20.00;13.63;;;-6.90;87.40;;;;;;5013512;28;20571;-89
2022/12/18 05:53:07;;;;;;;19.00;13.97;;;-6.90;87.40;;;;;;5013254;28;20253;-90
2022/12/18 05:55:37;;;;;;;18.47;13.90;;;-7.00;87.40;;;;;;5013521;28;20236;-89
2022/12/18 05:58:03;;;;;;;18.10;13.23;;;-7.00;87.40;;;;;;5013169;28;20216;-89
2022/12/18 06:00:31;;;;;;;21.80;14.97;;;-6.90;87.50;;;;;;5012569;28;20580;-89
2022/12/18 06:02:57;;;;;;;24.60;14.60;;;-6.90;87.60;;;;;;5012121;28;20169;-88
2022/12/18 06:05:23;;;;;;;21.20;13.50;;;-6.80;87.60;;;;;;5012441;28;20171;-89
2022/12/18 06:07:48;;;;;;;18.07;12.57;;;-6.70;87.60;;;;;;5012370;28;20176;-88
2022/12/18 06:10:14;;;;;;;21.17;13.93;;;-6.80;87.50;;;;;;5012457;28;20276;-88
2022/12/18 06:12:39;;;;;;;17.87;13.07;;;-6.80;87.50;;;;;;5012092;28;20174;-89
2022/12/18 06:15:05;;;;;;;22.73;13.70;;;-6.80;87.60;;;;;;5012068;28;20227;-89
2022/12/18 06:17:32;;;;;;;16.70;11.87;;;-6.70;87.80;;;;;;5011947;28;20667;-88
2022/12/18 06:19:57;;;;;;;20.07;12.73;;;-6.70;87.80;;;;;;5011915;28;20189;-89
2022/12/18 06:22:23;;;;;;;22.43;13.93;;;-6.60;87.90;;;;;;5013160;28;20197;-89
2022/12/18 06:24:49;;;;;;;18.60;12.83;;;-6.60;87.80;;;;;;5011949;28;20179;-88
2022/12/18 06:27:15;;;;;;;22.73;13.63;;;-6.60;87.90;;;;;;5011950;28;20673;-88
2022/12/18 06:29:40;;;;;;;20.77;13.30;;;-6.60;87.80;;;;;;5011623;28;20206;-89
2022/12/18 06:32:06;;;;;;;22.97;13.93;;;-6.60;87.80;;;;;;5013450;28;20174;-88
2022/12/18 06:34:32;;;;;;;21.10;13.50;;;-6.60;87.80;;;;;;5012621;28;20180;-89
2022/12/18 06:36:58;;;;;;;24.67;12.90;;;-6.60;87.80;;;;;;5011930;28;20180;-89
2022/12/18 06:39:23;;;;;;;20.07;13.37;;;-6.70;87.70;;;;;;5012567;28;20208;-89
2022/12/18 06:41:49;;;;;;;17.93;12.23;;;-6.80;87.70;;;;;;5011721;28;20200;-88
2022/12/18 06:44:14;;;;;;;17.33;12.67;;;-6.80;87.80;;;;;;5011910;28;20262;-89
2022/12/18 06:46:40;;;;;;;18.50;13.07;;;-6.80;87.90;;;;;;5011982;28;20577;-89
2022/12/18 06:49:05;;;;;;;26.57;23.70;;;-6.70;88.00;;;;;;5011875;28;20193;-89
2022/12/18 06:51:31;;;;;;;25.37;22.37;;;-6.80;87.90;;;;;;5012854;28;20267;-89
2022/12/18 06:53:56;;;;;;;29.37;23.87;;;-6.70;88.10;;;;;;5011569;28;20199;-89
2022/12/18 06:56:22;;;;;;;27.57;22.70;;;-6.70;88.10;;;;;;5011644;28;20181;-90
2022/12/18 06:58:51;;;;;;;23.93;21.63;;;-6.70;88.10;;;;;;5011716;28;20659;-89
2022/12/18 07:01:16;;;;;;;23.97;17.97;;;-6.80;88.10;;;;;;5011466;28;20205;-89
2022/12/18 07:03:42;;;;;;;23.23;18.53;;;-6.80;88.10;;;;;;5012466;28;20519;-89
2022/12/18 07:06:17;;;;;;;23.67;18.47;;;-6.70;88.20;;;;;;5013124;28;20525;-89
2022/12/18 07:08:43;;;;;;;26.17;18.60;;;-6.70;88.20;;;;;;5015260;28;20180;-89
2022/12/18 07:11:08;;;;;;;23.67;18.70;;;-6.60;88.30;;;;;;5016344;28;20194;-89
2022/12/18 07:13:34;;;;;;;22.70;18.30;;;-6.60;88.30;;;;;;5015144;28;20180;-89
2022/12/18 07:16:12;;;;;;;24.67;18.20;;;-6.60;88.30;;;;;;5015120;28;20177;-89
2022/12/18 07:18:38;;;;;;;25.40;17.53;;;-6.60;88.30;;;;;;5015898;28;20204;-90
2022/12/18 07:21:09;;;;;;;23.87;20.80;;;-6.50;88.30;;;;;;5015038;28;20282;-89
2022/12/18 07:23:35;;;;;;;25.87;21.23;;;-6.50;88.30;;;;;;5014849;28;20177;-89
2022/12/18 07:26:06;;;;;;;27.37;20.17;;;-6.50;88.30;;;;;;5014871;28;20728;-89
2022/12/18 07:28:33;;;;;;;22.67;17.63;;;-6.50;88.30;;;;;;5014947;28;20627;-89
2022/12/18 07:31:13;;;;;;;23.43;20.80;;;-6.50;88.30;;;;;;5014825;28;20678;-89
2022/12/18 07:33:38;;;;;;;23.30;19.87;;;-6.50;88.30;;;;;;5014774;28;20172;-89
2022/12/18 07:36:06;;;;;;;28.73;22.17;;;-6.40;88.40;;;;;;5015593;28;20243;-89
2022/12/18 07:38:32;;;;;;;25.13;19.20;;;-6.40;88.30;;;;;;5014642;28;20283;-89
2022/12/18 07:41:14;;;;;;;25.00;15.40;;;-6.40;88.40;;;;;;5015177;28;20219;-89
2022/12/18 07:43:41;;;;;;;25.53;16.70;;;-6.40;88.40;;;;;;5014494;28;20197;-89
2022/12/18 07:46:08;;;;;;;23.60;20.80;;;-6.40;88.40;;;;;;5014809;28;20191;-89
2022/12/18 07:48:33;;;;;;;27.27;24.37;;;-6.40;88.30;;;;;;5014517;28;20180;-89
2022/12/18 07:51:00;;;;;;;27.53;24.60;;;-6.30;88.40;;;;;;5014613;28;20211;-89
2022/12/18 07:53:26;;;;;;;28.37;25.33;;;-6.30;88.40;;;;;;5015531;28;20165;-89
2022/12/18 07:55:59;;;;;;;22.60;14.20;;;-6.30;88.30;;;;;;5014324;28;20643;-89
2022/12/18 07:58:26;;;;;;;23.47;13.43;;;-6.30;88.30;;;;;;5014415;28;20169;-89
2022/12/18 08:00:52;;;;;;;26.90;14.47;;;-6.20;88.30;;;;;;5014023;28;20213;-89
2022/12/18 08:03:18;;;;;;;18.93;13.33;;;-6.20;88.30;;;;;;5014181;28;20176;-89
2022/12/18 08:05:44;;;;;;;18.70;13.93;;;-6.10;88.30;;;;;;5014061;28;20177;-89
2022/12/18 08:08:10;;;;;;;18.40;13.77;;;-6.10;88.30;;;;;;5014124;28;20177;-89
2022/12/18 08:10:36;;;;;;;21.03;13.23;;;-6.00;88.30;;;;;;5013864;28;20203;-90
2022/12/18 08:13:02;;;;;;;22.93;15.43;;;-6.00;88.30;;;;;;5014286;28;20228;-89
2022/12/18 08:15:27;;;;;;;20.23;13.43;;;-6.00;88.20;;;;;;5014030;28;20613;-89
2022/12/18 08:17:56;;;;;;;18.37;13.60;;;-6.00;88.10;;;;;;5013800;28;20195;-89
2022/12/18 08:20:22;;;;;;;23.03;13.33;;;-6.00;88.10;;;;;;5014847;28;20631;-89
2022/12/18 08:22:47;;;;;;;17.20;13.13;;;-6.00;88.10;;;;;;5013708;28;20205;-89
2022/12/18 08:25:13;;;;;;;18.80;13.40;;;-5.90;88.20;;;;;;5014974;28;20252;-89
2022/12/18 08:27:38;;;;;;;21.03;13.93;;;-5.80;88.10;;;;;;5014866;28;20169;-89
2022/12/18 08:30:05;;;;;;;22.93;14.60;;;-5.90;88.00;;;;;;5014868;28;20216;-89
2022/12/18 08:32:32;;;;;;;18.37;13.40;;;-5.80;88.00;;;;;;5013916;28;20272;-89
2022/12/18 08:34:58;;;;;;;18.33;13.30;;;-5.90;87.90;;;;;;5013965;28;20186;-89
2022/12/18 08:37:23;;;;;;;19.33;12.77;;;-5.80;88.00;;;;;;5013501;28;20614;-88
2022/12/18 08:39:49;;;;;;;20.77;13.33;;;-5.80;88.00;;;;;;5013488;28;20197;-89
2022/12/18 08:44:59;;;;;;;18.77;13.20;;;-5.70;88.00;;;;;;5014992;28;20235;-88
2022/12/18 08:47:25;;;;;;;20.17;14.50;;;-5.70;88.00;;;;;;5014652;28;20616;-90
2022/12/18 08:49:51;;;;;;;24.77;14.23;;;-5.70;88.00;;;;;;5013313;28;20198;-88
2022/12/18 08:52:17;;;;;;;22.17;15.60;;;-5.60;88.10;;;;;;5014790;28;20192;-90
2022/12/18 08:54:42;;;;;;;28.17;14.80;;;-5.60;88.00;;;;;;5013198;28;20224;-90
2022/12/18 08:57:08;;;;;;;19.67;13.47;;;-5.60;88.10;;;;;;5014390;28;20632;-90
2022/12/18 08:59:33;;;;;;;20.77;13.17;;;-5.50;88.30;;;;;;5013146;28;20809;-90
2022/12/18 09:01:59;;;;;;;18.93;13.43;;;-5.40;88.20;;;;;;5013025;28;20244;-88
2022/12/18 09:04:24;;;;;;;20.10;13.57;;;-5.40;88.30;;;;;;5013307;28;20227;-89
2022/12/18 09:06:50;;;;;;;19.17;13.30;;;-5.40;88.20;;;;;;5014186;28;20365;-89
2022/12/18 09:09:15;;;;;;;20.47;14.17;;;-5.40;88.20;;;;;;5014513;28;20236;-89
2022/12/18 09:11:41;;;;;;;25.93;14.23;;;-5.30;88.20;;;;;;5014153;28;20633;-89
2022/12/18 09:14:06;;;;;;;17.13;11.10;;;-5.30;88.30;;;;;;5012976;28;20268;-89
2022/12/18 09:16:34;;;;;;;24.43;13.53;;;-5.10;88.30;;;;;;5014221;28;20169;-91
2022/12/18 09:19:01;;;;;;;18.40;12.73;;;-5.10;88.20;;;;;;5012966;28;20231;-90
2022/12/18 09:21:31;;;;;;;17.50;13.33;;;-5.00;88.10;;;;;;5012785;28;20212;-91
2022/12/18 09:23:56;;;;;;;17.00;12.60;;;-4.90;88.10;;;;;;5014147;28;20611;-91
2022/12/18 09:26:23;;;;;;;20.90;13.47;;;-4.90;88.10;;;;;;5013985;28;20204;-91
2022/12/18 09:28:49;;;;;;;20.63;13.23;;;-4.90;88.20;;;;;;5013842;28;20207;-91
2022/12/18 09:31:16;;;;;;;19.07;13.87;;;-4.80;88.20;;;;;;5013773;28;20212;-91
2022/12/18 09:33:42;;;;;;;18.57;13.57;;;-4.70;88.20;;;;;;5012818;28;20181;-91
2022/12/18 09:36:10;;;;;;;17.37;11.83;;;-4.70;88.20;;;;;;5012539;28;20256;-91
2022/12/18 09:38:36;;;;;;;16.67;12.93;;;-4.60;88.30;;;;;;5014219;28;20260;-91
2022/12/18 09:41:26;;;;;;;17.40;11.30;;;-4.60;88.20;;;;;;5012430;28;20300;-91
2022/12/18 09:43:55;;;;;;;23.27;13.10;;;-4.50;88.30;;;;;;5012554;28;20173;-91
2022/12/18 09:46:30;;;;;;;20.17;12.77;;;-4.30;88.30;;;;;;5012499;28;20170;-91
2022/12/18 09:49:00;;;;;;;16.07;12.90;;;-4.30;88.30;;;;;;5013766;28;20161;-91
2022/12/18 09:51:32;;;;;;;17.10;12.50;;;-4.20;88.20;;;;;;5013082;28;20227;-91
2022/12/18 09:54:03;;;;;;;22.10;13.20;;;-4.10;88.10;;;;;;5012422;28;20236;-91
2022/12/18 09:56:34;;;;;;;19.57;12.83;;;-4.10;88.10;;;;;;5013644;28;20172;-91
2022/12/18 09:59:02;;;;;;;24.47;13.60;;;-4.00;88.00;;;;;;5012264;28;20177;-91
2022/12/18 10:01:29;;;;;;;21.73;14.37;;;-3.90;87.90;;;;;;5013619;28;20292;-91
2022/12/18 10:03:56;;;;;;;17.67;13.00;;;-3.90;87.80;;;;;;5012198;28;20173;-91
2022/12/18 10:06:24;;;;;;;16.73;11.97;;;-3.80;87.80;;;;;;5013862;28;20173;-91
2022/12/18 10:08:56;;;;;;;17.80;13.43;;;-3.70;87.90;;;;;;5013835;28;20173;-91
2022/12/18 10:11:53;;;;;;;17.80;11.73;;;-3.60;87.70;;;;;;5012609;28;20293;-91
2022/12/18 10:14:38;;;;;;;20.43;12.63;;;-3.60;87.50;;;;;;4977066;28;20222;-91
2022/12/18 10:17:16;;;;;;;18.37;12.87;;;-3.50;87.30;;;;;;5012182;28;20662;-91
2022/12/18 10:19:49;;;;;;;15.63;12.33;;;-3.30;87.20;;;;;;5012174;28;20224;-91
2022/12/18 10:22:44;;;;;;;18.80;12.50;;;-3.40;87.00;;;;;;5013390;28;20185;-91
2022/12/18 10:25:42;;;;;;;21.97;13.20;;;-3.30;86.90;;;;;;5012151;28;20647;-91
2022/12/18 10:28:15;;;;;;;21.33;13.47;;;-3.30;86.80;;;;;;4992455;28;20288;-92
2022/12/18 10:30:42;;;;;;;17.13;13.67;;;-3.20;86.90;;;;;;5012984;28;20213;-91
2022/12/18 10:33:20;;;;;;;17.20;12.13;;;-3.20;86.70;;;;;;5013302;28;20174;-91
2022/12/18 10:35:52;;;;;;;17.57;12.20;;;-3.10;86.80;;;;;;5012322;28;20173;-92
2022/12/18 10:38:17;;;;;;;17.70;12.33;;;-3.10;86.90;;;;;;5012142;28;20703;-92
2022/12/18 10:41:18;;;;;;;15.43;11.60;;;-3.10;86.90;;;;;;5014269;28;20207;-92
2022/12/18 10:43:44;;;;;;;15.90;12.23;;;-3.00;86.70;;;;;;5003455;28;20187;-92
2022/12/18 10:46:10;;;;;;;18.87;13.37;;;-2.90;86.80;;;;;;5017070;28;20171;-92
2022/12/18 10:48:38;;;;;;;18.30;14.03;;;-2.90;86.70;;;;;;5016051;28;20582;-92
2022/12/18 10:51:06;;;;;;;18.13;13.03;;;-2.70;86.60;;;;;;5016091;28;20201;-91
2022/12/18 10:53:34;;;;;;;16.73;13.57;;;-2.60;86.50;;;;;;5015828;28;20187;-92
2022/12/18 10:56:05;;;;;;;20.83;12.57;;;-2.60;86.30;;;;;;5017315;28;20220;-92
2022/12/18 10:58:36;;;;;;;20.57;13.03;;;-2.50;86.10;;;;;;5016966;28;20173;-92
2022/12/18 11:01:10;;;;;;;17.43;12.93;;;-2.40;85.80;;;;;;5015937;28;20222;-91
2022/12/18 11:03:43;;;;;;;16.20;13.33;;;-2.30;85.80;;;;;;5016245;28;20166;-92
2022/12/18 11:06:22;;;;;;;19.60;11.53;;;-2.20;85.80;;;;;;5015561;28;20183;-91
2022/12/18 11:09:03;;;;;;;20.20;11.70;;;-2.20;85.30;;;;;;5016738;28;20156;-92
2022/12/18 11:11:30;;;;;;;15.73;11.73;;;-2.10;85.20;;;;;;5015465;28;20274;-92
2022/12/18 11:14:04;;;;;;;17.60;12.57;;;-2.10;85.10;;;;;;5016452;28;20185;-91
2022/12/18 11:16:51;;;;;;;16.30;12.57;;;-2.10;84.80;;;;;;5015694;28;20183;-91
2022/12/18 11:19:32;;;;;;;18.93;12.93;;;-2.10;85.00;;;;;;5016514;28;20198;-90
2022/12/18 11:21:58;;;;;;;15.90;12.20;;;-2.10;84.70;;;;;;5016802;28;20207;-92
2022/12/18 11:24:31;;;;;;;17.87;13.33;;;-2.10;84.50;;;;;;5015264;28;20174;-91
2022/12/18 11:27:05;;;;;;;19.20;12.90;;;-2.10;84.50;;;;;;5016400;28;20155;-91
2022/12/18 11:29:34;;;;;;;15.50;11.77;;;-2.20;84.30;;;;;;5015012;28;20201;-92
2022/12/18 11:32:15;;;;;;;18.17;12.67;;;-2.20;84.10;;;;;;5015357;28;20199;-91
2022/12/18 11:34:48;;;;;;;19.40;12.50;;;-2.10;84.20;;;;;;5016065;28;20249;-91
2022/12/18 11:37:19;;;;;;;21.47;11.97;;;-2.00;84.50;;;;;;5014961;28;20171;-92
2022/12/18 11:40:02;;;;;;;28.20;15.47;;;-1.70;84.70;;;;;;5015001;28;20639;-91
2022/12/18 11:42:34;;;;;;;17.90;12.37;;;-1.50;84.70;;;;;;5015076;28;20294;-92
2022/12/18 11:45:15;;;;;;;17.07;12.77;;;-1.40;84.00;;;;;;5015486;28;20169;-92
2022/12/18 11:48:18;;;;;;;15.23;12.93;;;-1.40;83.60;;;;;;5015966;28;20173;-92
2022/12/18 11:50:48;;;;;;;17.33;12.97;;;-1.40;83.00;;;;;;5016261;28;20197;-92
2022/12/18 11:53:13;;;;;;;17.00;13.07;;;-1.50;82.70;;;;;;5016605;28;20188;-93
2022/12/18 11:56:18;;;;;;;15.57;12.47;;;-1.50;82.80;;;;;;5015028;28;20181;-91
2022/12/18 11:58:55;;;;;;;16.30;12.83;;;-1.50;82.50;;;;;;5015407;28;20183;-92
2022/12/18 12:01:48;;;;;;;17.07;13.47;;;-1.50;82.70;;;;;;5021173;28;20197;-93
2022/12/18 12:04:25;;;;;;;14.73;11.87;;;-1.50;82.70;;;;;;5024040;28;20181;-90
2022/12/18 12:07:09;;;;;;;15.43;12.27;;;-1.50;81.90;;;;;;5015013;28;20773;-90
2022/12/18 12:09:37;;;;;;;13.83;12.40;;;-1.50;82.20;;;;;;5016170;28;20212;-91
2022/12/18 12:12:50;;;;;;;17.87;12.87;;;-1.60;82.40;;;;;;5020634;28;20189;-91
2022/12/18 12:15:58;;;;;;;15.73;12.13;;;-1.60;82.60;;;;;;5014773;28;20200;-91
2022/12/18 12:18:45;;;;;;;14.67;11.67;;;-1.50;82.60;;;;;;5014394;28;20268;-91
2022/12/18 12:21:32;;;;;;;13.30;11.93;;;-1.50;82.60;;;;;;5014528;28;20234;-92
2022/12/18 12:24:51;;;;;;;17.47;12.03;;;-1.50;82.50;;;;;;5014558;28;20172;-92
2022/12/18 12:27:44;;;;;;;12.80;11.23;;;-1.40;82.60;;;;;;4974722;28;20219;-92
2022/12/18 12:30:22;;;;;;;13.20;11.83;;;-1.40;82.00;;;;;;4958215;28;20716;-92
2022/12/18 12:33:00;;;;;;;15.10;12.33;;;-1.30;82.00;;;;;;4998846;28;20193;-92
2022/12/18 12:35:33;;;;;;;14.33;11.53;;;-1.20;81.90;;;;;;5013990;28;20172;-91
2022/12/18 12:38:13;;;;;;;15.20;11.47;;;-1.10;81.80;;;;;;5013880;28;20166;-91
2022/12/18 12:40:53;;;;;;;15.10;11.80;;;-1.00;82.20;;;;;;5013850;28;20228;-91
2022/12/18 12:43:32;;;;;;;17.80;11.40;;;-0.90;82.10;;;;;;5014330;28;20532;-91
2022/12/18 12:46:04;;;;;;;16.53;10.90;;;-1.00;82.10;;;;;;5015660;28;20202;-91
2022/12/18 12:48:46;;;;;;;13.13;11.40;;;-0.90;82.40;;;;;;5014323;28;20224;-92
2022/12/18 12:51:26;;;;;;;12.63;10.97;;;-0.90;82.50;;;;;;5013979;28;20208;-90
2022/12/18 12:53:53;;;;;;;14.07;11.57;;;-1.00;82.70;;;;;;5014503;28;20188;-92